Port Jefferson, Ohio
Current Conditions -  °F | °C
As of 6:10 PM on Monday 22 Dec 2014 (Local Time) from KEDJ Reporting Station
Clear Clear  
Wind Chill: 36°   Ceiling: Unl
Heat Index: 41°   Visibility: 10mi
Dew Point: 34°   Wind: 7mph
Humidity: 76%   Direction: 110°ESE
Pressure: 29.84"   Gusts: NA
Location:  40.33°N, 84.09°W
Report Text: KEDJ 222310Z AUTO 11006KT 10SM CLR 05/01 A2984 RMK AO1
Loading
Personal Weather Stations






























Interactive Weather Map New forecast layout! Learn more

10-Day Weather Forecast

Advertisements
Track Severe Weather on mobile